sensor_id;sensor_type;location;lat;lon;timestamp;P1;P2;P0
24012;PMS7003;12220;50.194;18.948;2024-02-16T00:01:41;16;11;9
24012;PMS7003;12220;50.194;18.948;2024-02-16T00:03:42;13;12;10
24012;PMS7003;12220;50.194;18.948;2024-02-16T00:05:43;13;13;9
24012;PMS7003;12220;50.194;18.948;2024-02-16T00:07:45;13;12;10
24012;PMS7003;12220;50.194;18.948;2024-02-16T00:09:56;12;10;7
24012;PMS7003;12220;50.194;18.948;2024-02-16T00:11:57;13;12;8
24012;PMS7003;12220;50.194;18.948;2024-02-16T00:13:58;12;12;9
24012;PMS7003;12220;50.194;18.948;2024-02-16T00:16:00;8;8;4
24012;PMS7003;12220;50.194;18.948;2024-02-16T00:18:11;11;10;8
24012;PMS7003;12220;50.194;18.948;2024-02-16T00:20:13;11;10;8
24012;PMS7003;12220;50.194;18.948;2024-02-16T00:22:15;11;9;7
24012;PMS7003;12220;50.194;18.948;2024-02-16T00:24:16;14;11;9
24012;PMS7003;12220;50.194;18.948;2024-02-16T00:26:26;13;10;8
24012;PMS7003;12220;50.194;18.948;2024-02-16T00:28:27;16;13;10
24012;PMS7003;12220;50.194;18.948;2024-02-16T00:30:28;16;13;10
24012;PMS7003;12220;50.194;18.948;2024-02-16T00:32:30;14;12;9
24012;PMS7003;12220;50.194;18.948;2024-02-16T00:34:41;26;19;14
24012;PMS7003;12220;50.194;18.948;2024-02-16T00:36:42;34;26;13
24012;PMS7003;12220;50.194;18.948;2024-02-16T00:38:44;30;29;15
24012;PMS7003;12220;50.194;18.948;2024-02-16T00:40:47;37;27;18
24012;PMS7003;12220;50.194;18.948;2024-02-16T00:42:57;30;26;17
24012;PMS7003;12220;50.194;18.948;2024-02-16T00:44:59;30;26;16
24012;PMS7003;12220;50.194;18.948;2024-02-16T00:47:04;31;23;15
24012;PMS7003;12220;50.194;18.948;2024-02-16T00:49:06;24;20;12
24012;PMS7003;12220;50.194;18.948;2024-02-16T00:51:13;29;23;17
24012;PMS7003;12220;50.194;18.948;2024-02-16T00:53:14;28;21;12
24012;PMS7003;12220;50.194;18.948;2024-02-16T00:55:15;18;17;11
24012;PMS7003;12220;50.194;18.948;2024-02-16T00:57:17;20;17;12
24012;PMS7003;12220;50.194;18.948;2024-02-16T00:59:28;24;24;16
24012;PMS7003;12220;50.194;18.948;2024-02-16T01:01:30;14;13;12
24012;PMS7003;12220;50.194;18.948;2024-02-16T01:03:31;21;18;12
24012;PMS7003;12220;50.194;18.948;2024-02-16T01:05:33;18;16;13
24012;PMS7003;12220;50.194;18.948;2024-02-16T01:07:43;20;17;14
24012;PMS7003;12220;50.194;18.948;2024-02-16T01:09:44;21;20;16
24012;PMS7003;12220;50.194;18.948;2024-02-16T01:11:46;21;20;16
24012;PMS7003;12220;50.194;18.948;2024-02-16T01:13:47;28;26;18
24012;PMS7003;12220;50.194;18.948;2024-02-16T01:15:57;23;23;15
24012;PMS7003;12220;50.194;18.948;2024-02-16T01:17:59;38;32;20
24012;PMS7003;12220;50.194;18.948;2024-02-16T01:20:01;31;29;20
24012;PMS7003;12220;50.194;18.948;2024-02-16T01:22:02;36;29;17
24012;PMS7003;12220;50.194;18.948;2024-02-16T01:24:14;28;27;21
24012;PMS7003;12220;50.194;18.948;2024-02-16T01:26:16;37;32;22
24012;PMS7003;12220;50.194;18.948;2024-02-16T01:28:17;33;30;20
24012;PMS7003;12220;50.194;18.948;2024-02-16T01:30:18;36;32;21
24012;PMS7003;12220;50.194;18.948;2024-02-16T01:32:29;37;33;22
24012;PMS7003;12220;50.194;18.948;2024-02-16T01:34:31;45;35;23
24012;PMS7003;12220;50.194;18.948;2024-02-16T01:36:32;44;35;24
24012;PMS7003;12220;50.194;18.948;2024-02-16T01:38:34;38;31;22
24012;PMS7003;12220;50.194;18.948;2024-02-16T01:40:44;42;35;23
24012;PMS7003;12220;50.194;18.948;2024-02-16T01:42:49;39;32;23
24012;PMS7003;12220;50.194;18.948;2024-02-16T01:44:50;38;32;23
24012;PMS7003;12220;50.194;18.948;2024-02-16T01:46:52;48;38;24
24012;PMS7003;12220;50.194;18.948;2024-02-16T01:49:00;51;38;26
24012;PMS7003;12220;50.194;18.948;2024-02-16T01:51:02;43;36;25
24012;PMS7003;12220;50.194;18.948;2024-02-16T01:53:04;50;41;26
24012;PMS7003;12220;50.194;18.948;2024-02-16T01:55:06;45;38;24
24012;PMS7003;12220;50.194;18.948;2024-02-16T01:57:14;48;39;26
24012;PMS7003;12220;50.194;18.948;2024-02-16T01:59:18;44;36;25
24012;PMS7003;12220;50.194;18.948;2024-02-16T02:01:20;47;38;23
24012;PMS7003;12220;50.194;18.948;2024-02-16T02:03:21;54;41;27
24012;PMS7003;12220;50.194;18.948;2024-02-16T02:05:31;48;38;25
24012;PMS7003;12220;50.194;18.948;2024-02-16T02:07:33;50;39;25
24012;PMS7003;12220;50.194;18.948;2024-02-16T02:09:35;51;41;27
24012;PMS7003;12220;50.194;18.948;2024-02-16T02:11:37;50;39;25
24012;PMS7003;12220;50.194;18.948;2024-02-16T02:13:45;44;37;25
24012;PMS7003;12220;50.194;18.948;2024-02-16T02:15:46;40;35;26
24012;PMS7003;12220;50.194;18.948;2024-02-16T02:17:47;51;41;27
24012;PMS7003;12220;50.194;18.948;2024-02-16T02:19:49;53;42;27
24012;PMS7003;12220;50.194;18.948;2024-02-16T02:22:00;44;37;26
24012;PMS7003;12220;50.194;18.948;2024-02-16T02:24:02;52;42;26
24012;PMS7003;12220;50.194;18.948;2024-02-16T02:26:03;53;42;25
24012;PMS7003;12220;50.194;18.948;2024-02-16T02:28:05;52;41;28
24012;PMS7003;12220;50.194;18.948;2024-02-16T02:30:15;47;39;25
24012;PMS7003;12220;50.194;18.948;2024-02-16T02:32:17;51;42;25
24012;PMS7003;12220;50.194;18.948;2024-02-16T02:34:18;44;38;25
24012;PMS7003;12220;50.194;18.948;2024-02-16T02:36:21;40;36;26
24012;PMS7003;12220;50.194;18.948;2024-02-16T02:38:30;44;38;22
24012;PMS7003;12220;50.194;18.948;2024-02-16T02:40:31;45;38;27
24012;PMS7003;12220;50.194;18.948;2024-02-16T02:42:33;46;37;25
24012;PMS7003;12220;50.194;18.948;2024-02-16T02:44:34;46;37;24
24012;PMS7003;12220;50.194;18.948;2024-02-16T02:46:45;43;34;23
24012;PMS7003;12220;50.194;18.948;2024-02-16T02:48:46;50;38;23
24012;PMS7003;12220;50.194;18.948;2024-02-16T02:50:48;48;37;26
24012;PMS7003;12220;50.194;18.948;2024-02-16T02:52:49;53;39;26
24012;PMS7003;12220;50.194;18.948;2024-02-16T02:55:00;46;38;24
24012;PMS7003;12220;50.194;18.948;2024-02-16T02:57:02;46;38;26
24012;PMS7003;12220;50.194;18.948;2024-02-16T02:59:04;43;36;23
24012;PMS7003;12220;50.194;18.948;2024-02-16T03:01:06;46;39;23
24012;PMS7003;12220;50.194;18.948;2024-02-16T03:03:15;47;38;26
24012;PMS7003;12220;50.194;18.948;2024-02-16T03:05:17;47;37;24
24012;PMS7003;12220;50.194;18.948;2024-02-16T03:07:22;49;40;27
24012;PMS7003;12220;50.194;18.948;2024-02-16T03:09:26;46;38;25
24012;PMS7003;12220;50.194;18.948;2024-02-16T03:11:30;48;37;24
24012;PMS7003;12220;50.194;18.948;2024-02-16T03:13:31;41;35;22
24012;PMS7003;12220;50.194;18.948;2024-02-16T03:15:33;47;39;26
24012;PMS7003;12220;50.194;18.948;2024-02-16T03:17:36;43;33;23
24012;PMS7003;12220;50.194;18.948;2024-02-16T03:19:45;46;36;23
24012;PMS7003;12220;50.194;18.948;2024-02-16T03:21:47;44;37;25
24012;PMS7003;12220;50.194;18.948;2024-02-16T03:23:49;40;34;21
24012;PMS7003;12220;50.194;18.948;2024-02-16T03:25:50;42;33;22
24012;PMS7003;12220;50.194;18.948;2024-02-16T03:28:00;52;35;23
24012;PMS7003;12220;50.194;18.948;2024-02-16T03:30:02;41;35;23
24012;PMS7003;12220;50.194;18.948;2024-02-16T03:32:03;43;36;23
24012;PMS7003;12220;50.194;18.948;2024-02-16T03:34:05;42;34;22
24012;PMS7003;12220;50.194;18.948;2024-02-16T03:36:15;34;30;20
24012;PMS7003;12220;50.194;18.948;2024-02-16T03:38:17;43;37;24
24012;PMS7003;12220;50.194;18.948;2024-02-16T03:40:18;40;32;22
24012;PMS7003;12220;50.194;18.948;2024-02-16T03:42:20;39;32;23
24012;PMS7003;12220;50.194;18.948;2024-02-16T03:44:30;41;35;22
24012;PMS7003;12220;50.194;18.948;2024-02-16T03:46:32;35;31;22
24012;PMS7003;12220;50.194;18.948;2024-02-16T03:48:33;38;31;20
24012;PMS7003;12220;50.194;18.948;2024-02-16T03:50:35;34;32;19
24012;PMS7003;12220;50.194;18.948;2024-02-16T03:52:46;34;33;21
24012;PMS7003;12220;50.194;18.948;2024-02-16T03:54:47;36;32;22
24012;PMS7003;12220;50.194;18.948;2024-02-16T03:56:54;43;32;22
24012;PMS7003;12220;50.194;18.948;2024-02-16T03:58:56;43;32;21
24012;PMS7003;12220;50.194;18.948;2024-02-16T04:01:01;41;36;24
24012;PMS7003;12220;50.194;18.948;2024-02-16T04:03:02;39;31;22
24012;PMS7003;12220;50.194;18.948;2024-02-16T04:05:05;40;33;23
24012;PMS7003;12220;50.194;18.948;2024-02-16T04:07:09;45;35;22
24012;PMS7003;12220;50.194;18.948;2024-02-16T04:09:16;34;30;20
24012;PMS7003;12220;50.194;18.948;2024-02-16T04:11:17;38;29;19
24012;PMS7003;12220;50.194;18.948;2024-02-16T04:13:18;42;35;24
24012;PMS7003;12220;50.194;18.948;2024-02-16T04:15:20;45;36;23
24012;PMS7003;12220;50.194;18.948;2024-02-16T04:17:31;38;35;24
24012;PMS7003;12220;50.194;18.948;2024-02-16T04:19:32;45;34;22
24012;PMS7003;12220;50.194;18.948;2024-02-16T04:21:33;44;34;23
24012;PMS7003;12220;50.194;18.948;2024-02-16T04:23:35;46;40;26
24012;PMS7003;12220;50.194;18.948;2024-02-16T04:25:46;40;35;24
24012;PMS7003;12220;50.194;18.948;2024-02-16T04:27:47;47;37;22
24012;PMS7003;12220;50.194;18.948;2024-02-16T04:29:49;48;37;23
24012;PMS7003;12220;50.194;18.948;2024-02-16T04:31:50;50;40;26
24012;PMS7003;12220;50.194;18.948;2024-02-16T04:34:01;46;38;25
24012;PMS7003;12220;50.194;18.948;2024-02-16T04:36:05;46;40;25
24012;PMS7003;12220;50.194;18.948;2024-02-16T04:38:07;52;39;24
24012;PMS7003;12220;50.194;18.948;2024-02-16T04:40:09;46;38;26
24012;PMS7003;12220;50.194;18.948;2024-02-16T04:42:16;43;35;24
24012;PMS7003;12220;50.194;18.948;2024-02-16T04:44:18;59;40;24
24012;PMS7003;12220;50.194;18.948;2024-02-16T04:46:19;46;38;24
24012;PMS7003;12220;50.194;18.948;2024-02-16T04:48:22;44;36;25
24012;PMS7003;12220;50.194;18.948;2024-02-16T04:50:31;39;34;21
24012;PMS7003;12220;50.194;18.948;2024-02-16T04:52:33;46;36;24
24012;PMS7003;12220;50.194;18.948;2024-02-16T04:54:35;50;39;24
24012;PMS7003;12220;50.194;18.948;2024-02-16T04:56:37;39;33;22
24012;PMS7003;12220;50.194;18.948;2024-02-16T04:58:46;45;32;21
24012;PMS7003;12220;50.194;18.948;2024-02-16T05:00:48;36;31;22
24012;PMS7003;12220;50.194;18.948;2024-02-16T05:02:50;38;33;22
24012;PMS7003;12220;50.194;18.948;2024-02-16T05:04:53;32;29;21
24012;PMS7003;12220;50.194;18.948;2024-02-16T05:07:01;35;32;20
24012;PMS7003;12220;50.194;18.948;2024-02-16T05:09:03;43;35;21
24012;PMS7003;12220;50.194;18.948;2024-02-16T05:11:04;43;34;21
24012;PMS7003;12220;50.194;18.948;2024-02-16T05:13:08;38;31;21
24012;PMS7003;12220;50.194;18.948;2024-02-16T05:15:17;43;35;23
24012;PMS7003;12220;50.194;18.948;2024-02-16T05:17:18;36;33;22
24012;PMS7003;12220;50.194;18.948;2024-02-16T05:19:22;45;38;23
24012;PMS7003;12220;50.194;18.948;2024-02-16T05:21:24;42;36;24
24012;PMS7003;12220;50.194;18.948;2024-02-16T05:23:32;48;38;25
24012;PMS7003;12220;50.194;18.948;2024-02-16T05:25:33;40;33;24
24012;PMS7003;12220;50.194;18.948;2024-02-16T05:27:34;45;37;23
24012;PMS7003;12220;50.194;18.948;2024-02-16T05:29:36;40;32;22
24012;PMS7003;12220;50.194;18.948;2024-02-16T05:31:47;44;38;25
24012;PMS7003;12220;50.194;18.948;2024-02-16T05:33:51;46;37;24
24012;PMS7003;12220;50.194;18.948;2024-02-16T05:35:52;45;36;23
24012;PMS7003;12220;50.194;18.948;2024-02-16T05:37:59;43;35;24
24012;PMS7003;12220;50.194;18.948;2024-02-16T05:40:10;49;41;26
24012;PMS7003;12220;50.194;18.948;2024-02-16T05:42:24;44;37;22
24012;PMS7003;12220;50.194;18.948;2024-02-16T05:44:25;47;37;23
24012;PMS7003;12220;50.194;18.948;2024-02-16T05:46:27;40;34;23
24012;PMS7003;12220;50.194;18.948;2024-02-16T05:48:28;38;34;23
24012;PMS7003;12220;50.194;18.948;2024-02-16T05:50:38;50;37;22
24012;PMS7003;12220;50.194;18.948;2024-02-16T05:52:41;39;35;23
24012;PMS7003;12220;50.194;18.948;2024-02-16T05:54:46;42;35;22
24012;PMS7003;12220;50.194;18.948;2024-02-16T05:56:50;43;36;23
24012;PMS7003;12220;50.194;18.948;2024-02-16T05:58:54;38;32;21
24012;PMS7003;12220;50.194;18.948;2024-02-16T06:00:55;39;32;20
24012;PMS7003;12220;50.194;18.948;2024-02-16T06:02:58;42;35;22
24012;PMS7003;12220;50.194;18.948;2024-02-16T06:05:00;38;30;21
24012;PMS7003;12220;50.194;18.948;2024-02-16T06:07:09;42;32;22
24012;PMS7003;12220;50.194;18.948;2024-02-16T06:09:11;33;28;20
24012;PMS7003;12220;50.194;18.948;2024-02-16T06:11:13;46;34;23
24012;PMS7003;12220;50.194;18.948;2024-02-16T06:13:16;42;35;24
24012;PMS7003;12220;50.194;18.948;2024-02-16T06:15:24;39;33;20
24012;PMS7003;12220;50.194;18.948;2024-02-16T06:17:25;49;37;24
24012;PMS7003;12220;50.194;18.948;2024-02-16T06:19:27;43;36;24
24012;PMS7003;12220;50.194;18.948;2024-02-16T06:21:28;45;35;22
24012;PMS7003;12220;50.194;18.948;2024-02-16T06:23:39;45;38;24
24012;PMS7003;12220;50.194;18.948;2024-02-16T06:25:40;44;34;23
24012;PMS7003;12220;50.194;18.948;2024-02-16T06:27:42;42;36;22
24012;PMS7003;12220;50.194;18.948;2024-02-16T06:29:44;41;33;21
24012;PMS7003;12220;50.194;18.948;2024-02-16T06:31:54;40;35;23
24012;PMS7003;12220;50.194;18.948;2024-02-16T06:33:55;40;33;22
24012;PMS7003;12220;50.194;18.948;2024-02-16T06:35:57;43;37;24
24012;PMS7003;12220;50.194;18.948;2024-02-16T06:37:59;45;37;24
24012;PMS7003;12220;50.194;18.948;2024-02-16T06:40:09;42;35;22
24012;PMS7003;12220;50.194;18.948;2024-02-16T06:42:11;32;30;21
24012;PMS7003;12220;50.194;18.948;2024-02-16T06:44:13;35;33;23
24012;PMS7003;12220;50.194;18.948;2024-02-16T06:46:15;30;30;22
24012;PMS7003;12220;50.194;18.948;2024-02-16T06:48:24;29;29;21
24012;PMS7003;12220;50.194;18.948;2024-02-16T06:50:26;37;32;23
24012;PMS7003;12220;50.194;18.948;2024-02-16T06:52:27;47;34;22
24012;PMS7003;12220;50.194;18.948;2024-02-16T06:54:29;33;30;21
24012;PMS7003;12220;50.194;18.948;2024-02-16T06:56:39;37;31;22
24012;PMS7003;12220;50.194;18.948;2024-02-16T06:58:41;35;31;22
24012;PMS7003;12220;50.194;18.948;2024-02-16T07:00:43;36;32;22
24012;PMS7003;12220;50.194;18.948;2024-02-16T07:02:44;39;33;22
24012;PMS7003;12220;50.194;18.948;2024-02-16T07:04:54;47;38;24
24012;PMS7003;12220;50.194;18.948;2024-02-16T07:06:56;47;39;24
24012;PMS7003;12220;50.194;18.948;2024-02-16T07:08:57;38;32;23
24012;PMS7003;12220;50.194;18.948;2024-02-16T07:10:58;36;33;22
24012;PMS7003;12220;50.194;18.948;2024-02-16T07:13:12;44;34;23
24012;PMS7003;12220;50.194;18.948;2024-02-16T07:15:14;41;33;22
24012;PMS7003;12220;50.194;18.948;2024-02-16T07:17:15;48;36;23
24012;PMS7003;12220;50.194;18.948;2024-02-16T07:19:17;44;35;21
24012;PMS7003;12220;50.194;18.948;2024-02-16T07:21:25;52;37;23
24012;PMS7003;12220;50.194;18.948;2024-02-16T07:23:29;41;35;22
24012;PMS7003;12220;50.194;18.948;2024-02-16T07:25:30;34;30;20
24012;PMS7003;12220;50.194;18.948;2024-02-16T07:27:31;45;38;25
24012;PMS7003;12220;50.194;18.948;2024-02-16T07:29:40;46;36;23
24012;PMS7003;12220;50.194;18.948;2024-02-16T07:31:41;44;37;24
24012;PMS7003;12220;50.194;18.948;2024-02-16T07:33:43;48;37;24
24012;PMS7003;12220;50.194;18.948;2024-02-16T07:35:46;47;40;24
24012;PMS7003;12220;50.194;18.948;2024-02-16T07:37:55;38;32;20
24012;PMS7003;12220;50.194;18.948;2024-02-16T07:39:59;42;36;22
24012;PMS7003;12220;50.194;18.948;2024-02-16T07:42:01;33;30;21
24012;PMS7003;12220;50.194;18.948;2024-02-16T07:44:02;46;39;24
24012;PMS7003;12220;50.194;18.948;2024-02-16T07:46:10;40;34;23
24012;PMS7003;12220;50.194;18.948;2024-02-16T07:48:11;41;35;24
24012;PMS7003;12220;50.194;18.948;2024-02-16T07:50:13;47;36;23
24012;PMS7003;12220;50.194;18.948;2024-02-16T07:52:20;43;36;21
24012;PMS7003;12220;50.194;18.948;2024-02-16T07:54:25;50;42;26
24012;PMS7003;12220;50.194;18.948;2024-02-16T07:56:27;51;37;24
24012;PMS7003;12220;50.194;18.948;2024-02-16T07:58:28;44;36;22
24012;PMS7003;12220;50.194;18.948;2024-02-16T08:00:29;40;32;22
24012;PMS7003;12220;50.194;18.948;2024-02-16T08:02:40;36;33;23
24012;PMS7003;12220;50.194;18.948;2024-02-16T08:04:47;42;34;24
24012;PMS7003;12220;50.194;18.948;2024-02-16T08:06:52;35;31;21
24012;PMS7003;12220;50.194;18.948;2024-02-16T08:08:54;33;30;21
24012;PMS7003;12220;50.194;18.948;2024-02-16T08:10:57;40;34;22
24012;PMS7003;12220;50.194;18.948;2024-02-16T08:12:58;40;33;22
24012;PMS7003;12220;50.194;18.948;2024-02-16T08:15:00;44;36;24
24012;PMS7003;12220;50.194;18.948;2024-02-16T08:17:02;46;37;23
24012;PMS7003;12220;50.194;18.948;2024-02-16T08:19:12;46;38;25
24012;PMS7003;12220;50.194;18.948;2024-02-16T08:21:17;42;36;23
24012;PMS7003;12220;50.194;18.948;2024-02-16T08:23:18;43;35;24
24012;PMS7003;12220;50.194;18.948;2024-02-16T08:25:21;36;32;23
24012;PMS7003;12220;50.194;18.948;2024-02-16T08:27:27;44;35;23
24012;PMS7003;12220;50.194;18.948;2024-02-16T08:29:29;40;32;23
24012;PMS7003;12220;50.194;18.948;2024-02-16T08:31:31;44;33;22
24012;PMS7003;12220;50.194;18.948;2024-02-16T08:33:32;38;34;24
24012;PMS7003;12220;50.194;18.948;2024-02-16T08:35:43;44;36;24
24012;PMS7003;12220;50.194;18.948;2024-02-16T08:37:44;39;33;22
24012;PMS7003;12220;50.194;18.948;2024-02-16T08:39:46;34;27;20
24012;PMS7003;12220;50.194;18.948;2024-02-16T08:41:47;35;32;21
24012;PMS7003;12220;50.194;18.948;2024-02-16T08:43:57;36;32;22
24012;PMS7003;12220;50.194;18.948;2024-02-16T08:45:59;33;31;20
24012;PMS7003;12220;50.194;18.948;2024-02-16T08:48:00;36;31;22
24012;PMS7003;12220;50.194;18.948;2024-02-16T08:50:04;35;30;19
24012;PMS7003;12220;50.194;18.948;2024-02-16T08:52:13;28;25;18
24012;PMS7003;12220;50.194;18.948;2024-02-16T08:54:14;35;32;19
24012;PMS7003;12220;50.194;18.948;2024-02-16T08:56:19;29;27;19
24012;PMS7003;12220;50.194;18.948;2024-02-16T08:58:20;35;27;19
24012;PMS7003;12220;50.194;18.948;2024-02-16T09:00:28;37;29;19
24012;PMS7003;12220;50.194;18.948;2024-02-16T09:02:29;37;34;20
24012;PMS7003;12220;50.194;18.948;2024-02-16T09:04:30;30;26;19
24012;PMS7003;12220;50.194;18.948;2024-02-16T09:06:32;29;25;17
24012;PMS7003;12220;50.194;18.948;2024-02-16T09:08:43;34;31;21
24012;PMS7003;12220;50.194;18.948;2024-02-16T09:10:44;36;32;20
24012;PMS7003;12220;50.194;18.948;2024-02-16T09:12:46;32;29;20
24012;PMS7003;12220;50.194;18.948;2024-02-16T09:14:47;32;30;20
24012;PMS7003;12220;50.194;18.948;2024-02-16T09:16:58;42;35;22
24012;PMS7003;12220;50.194;18.948;2024-02-16T09:18:59;29;25;18
24012;PMS7003;12220;50.194;18.948;2024-02-16T09:21:01;34;28;19
24012;PMS7003;12220;50.194;18.948;2024-02-16T09:23:02;38;34;23
24012;PMS7003;12220;50.194;18.948;2024-02-16T09:25:13;41;35;23
24012;PMS7003;12220;50.194;18.948;2024-02-16T09:27:15;33;30;20
24012;PMS7003;12220;50.194;18.948;2024-02-16T09:29:17;33;29;18
24012;PMS7003;12220;50.194;18.948;2024-02-16T09:31:19;33;29;21
24012;PMS7003;12220;50.194;18.948;2024-02-16T09:33:28;38;28;20
24012;PMS7003;12220;50.194;18.948;2024-02-16T09:35:29;27;27;16
24012;PMS7003;12220;50.194;18.948;2024-02-16T09:37:31;36;29;20
24012;PMS7003;12220;50.194;18.948;2024-02-16T09:39:37;30;27;16
24012;PMS7003;12220;50.194;18.948;2024-02-16T09:41:43;32;30;19
24012;PMS7003;12220;50.194;18.948;2024-02-16T09:43:50;36;30;19
24012;PMS7003;12220;50.194;18.948;2024-02-16T09:45:55;30;28;18
24012;PMS7003;12220;50.194;18.948;2024-02-16T09:47:59;30;28;22
24012;PMS7003;12220;50.194;18.948;2024-02-16T09:50:01;33;29;21
24012;PMS7003;12220;50.194;18.948;2024-02-16T09:52:03;47;37;23
24012;PMS7003;12220;50.194;18.948;2024-02-16T09:54:06;38;32;20
24012;PMS7003;12220;50.194;18.948;2024-02-16T09:56:08;34;30;21
24012;PMS7003;12220;50.194;18.948;2024-02-16T09:58:20;35;30;22
24012;PMS7003;12220;50.194;18.948;2024-02-16T10:00:22;27;27;20
24012;PMS7003;12220;50.194;18.948;2024-02-16T10:02:24;35;31;21
24012;PMS7003;12220;50.194;18.948;2024-02-16T10:04:25;32;27;21
24012;PMS7003;12220;50.194;18.948;2024-02-16T10:06:27;36;32;21
24012;PMS7003;12220;50.194;18.948;2024-02-16T10:08:28;29;27;20
24012;PMS7003;12220;50.194;18.948;2024-02-16T10:10:29;32;27;22
24012;PMS7003;12220;50.194;18.948;2024-02-16T10:12:34;37;32;21
24012;PMS7003;12220;50.194;18.948;2024-02-16T10:14:37;32;30;21
24012;PMS7003;12220;50.194;18.948;2024-02-16T10:16:41;34;31;22
24012;PMS7003;12220;50.194;18.948;2024-02-16T10:18:42;38;32;23
24012;PMS7003;12220;50.194;18.948;2024-02-16T10:20:51;31;25;17
24012;PMS7003;12220;50.194;18.948;2024-02-16T10:25:08;32;29;20
24012;PMS7003;12220;50.194;18.948;2024-02-16T10:27:17;32;30;20
24012;PMS7003;12220;50.194;18.948;2024-02-16T10:29:22;31;28;19
24012;PMS7003;12220;50.194;18.948;2024-02-16T10:31:37;25;25;18
24012;PMS7003;12220;50.194;18.948;2024-02-16T10:33:38;24;22;16
24012;PMS7003;12220;50.194;18.948;2024-02-16T10:35:44;37;33;21
24012;PMS7003;12220;50.194;18.948;2024-02-16T10:37:47;27;21;18
24012;PMS7003;12220;50.194;18.948;2024-02-16T10:39:54;28;28;19
24012;PMS7003;12220;50.194;18.948;2024-02-16T10:41:57;28;25;19
24012;PMS7003;12220;50.194;18.948;2024-02-16T10:44:01;35;33;21
24012;PMS7003;12220;50.194;18.948;2024-02-16T10:46:04;36;29;19
24012;PMS7003;12220;50.194;18.948;2024-02-16T10:48:07;20;19;15
24012;PMS7003;12220;50.194;18.948;2024-02-16T10:50:08;22;18;12
24012;PMS7003;12220;50.194;18.948;2024-02-16T10:52:10;12;11;9
24012;PMS7003;12220;50.194;18.948;2024-02-16T10:54:17;14;13;10
24012;PMS7003;12220;50.194;18.948;2024-02-16T10:58:43;15;12;9
24012;PMS7003;12220;50.194;18.948;2024-02-16T11:00:52;12;11;9
24012;PMS7003;12220;50.194;18.948;2024-02-16T11:02:54;11;9;8
24012;PMS7003;12220;50.194;18.948;2024-02-16T11:04:59;10;10;7
24012;PMS7003;12220;50.194;18.948;2024-02-16T11:07:00;16;14;11
24012;PMS7003;12220;50.194;18.948;2024-02-16T11:09:02;15;14;10
24012;PMS7003;12220;50.194;18.948;2024-02-16T11:11:10;11;11;9
24012;PMS7003;12220;50.194;18.948;2024-02-16T11:13:13;11;9;7
24012;PMS7003;12220;50.194;18.948;2024-02-16T11:17:37;11;9;7
24012;PMS7003;12220;50.194;18.948;2024-02-16T11:19:45;12;9;8
24012;PMS7003;12220;50.194;18.948;2024-02-16T11:26:10;11;11;8
24012;PMS7003;12220;50.194;18.948;2024-02-16T11:28:14;8;8;7
24012;PMS7003;12220;50.194;18.948;2024-02-16T11:30:15;8;8;7
24012;PMS7003;12220;50.194;18.948;2024-02-16T11:32:18;8;8;7
24012;PMS7003;12220;50.194;18.948;2024-02-16T11:34:23;10;10;10
24012;PMS7003;12220;50.194;18.948;2024-02-16T11:36:29;15;11;9
24012;PMS7003;12220;50.194;18.948;2024-02-16T11:38:31;10;9;8
24012;PMS7003;12220;50.194;18.948;2024-02-16T11:40:35;11;11;8
24012;PMS7003;12220;50.194;18.948;2024-02-16T11:42:37;9;9;6
24012;PMS7003;12220;50.194;18.948;2024-02-16T11:46:53;10;10;8
24012;PMS7003;12220;50.194;18.948;2024-02-16T11:49:04;9;7;7
24012;PMS7003;12220;50.194;18.948;2024-02-16T11:51:08;15;9;8
24012;PMS7003;12220;50.194;18.948;2024-02-16T11:53:14;8;8;8
24012;PMS7003;12220;50.194;18.948;2024-02-16T11:55:22;10;10;5
24012;PMS7003;12220;50.194;18.948;2024-02-16T11:57:24;10;7;7
24012;PMS7003;12220;50.194;18.948;2024-02-16T11:59:26;8;8;8
24012;PMS7003;12220;50.194;18.948;2024-02-16T12:01:27;10;9;7
24012;PMS7003;12220;50.194;18.948;2024-02-16T12:03:37;11;10;9
24012;PMS7003;12220;50.194;18.948;2024-02-16T12:05:49;11;10;8
24012;PMS7003;12220;50.194;18.948;2024-02-16T12:07:57;11;10;7
24012;PMS7003;12220;50.194;18.948;2024-02-16T12:10:00;11;9;6
24012;PMS7003;12220;50.194;18.948;2024-02-16T12:12:05;10;10;8
24012;PMS7003;12220;50.194;18.948;2024-02-16T12:14:10;9;9;8
24012;PMS7003;12220;50.194;18.948;2024-02-16T12:16:11;7;7;7
24012;PMS7003;12220;50.194;18.948;2024-02-16T12:20:23;11;8;6
24012;PMS7003;12220;50.194;18.948;2024-02-16T12:22:25;5;3;3
24012;PMS7003;12220;50.194;18.948;2024-02-16T12:24:26;6;6;5
24012;PMS7003;12220;50.194;18.948;2024-02-16T12:26:28;3;3;2
24012;PMS7003;12220;50.194;18.948;2024-02-16T12:28:31;5;5;4
24012;PMS7003;12220;50.194;18.948;2024-02-16T12:30:33;5;5;3
24012;PMS7003;12220;50.194;18.948;2024-02-16T12:32:35;6;5;4
24012;PMS7003;12220;50.194;18.948;2024-02-16T12:34:37;9;9;6
24012;PMS7003;12220;50.194;18.948;2024-02-16T12:36:46;7;6;6
24012;PMS7003;12220;50.194;18.948;2024-02-16T12:38:47;5;4;3
24012;PMS7003;12220;50.194;18.948;2024-02-16T12:40:50;4;2;2
24012;PMS7003;12220;50.194;18.948;2024-02-16T12:42:51;3;3;3
24012;PMS7003;12220;50.194;18.948;2024-02-16T12:45:01;5;5;4
24012;PMS7003;12220;50.194;18.948;2024-02-16T12:47:03;6;6;5
24012;PMS7003;12220;50.194;18.948;2024-02-16T12:49:04;9;7;6
24012;PMS7003;12220;50.194;18.948;2024-02-16T12:51:06;10;5;5
24012;PMS7003;12220;50.194;18.948;2024-02-16T12:53:16;3;3;3
24012;PMS7003;12220;50.194;18.948;2024-02-16T12:55:18;4;4;3
24012;PMS7003;12220;50.194;18.948;2024-02-16T12:57:20;4;4;2
24012;PMS7003;12220;50.194;18.948;2024-02-16T12:59:21;5;5;3
24012;PMS7003;12220;50.194;18.948;2024-02-16T13:01:31;4;4;3
24012;PMS7003;12220;50.194;18.948;2024-02-16T13:03:35;5;5;5
24012;PMS7003;12220;50.194;18.948;2024-02-16T13:05:38;9;7;5
24012;PMS7003;12220;50.194;18.948;2024-02-16T13:07:39;4;4;4
24012;PMS7003;12220;50.194;18.948;2024-02-16T13:09:46;4;3;3
24012;PMS7003;12220;50.194;18.948;2024-02-16T13:11:47;3;3;3
24012;PMS7003;12220;50.194;18.948;2024-02-16T13:13:54;5;4;4
24012;PMS7003;12220;50.194;18.948;2024-02-16T13:15:56;7;7;6
24012;PMS7003;12220;50.194;18.948;2024-02-16T13:18:00;5;5;4
24012;PMS7003;12220;50.194;18.948;2024-02-16T13:20:02;8;5;4
24012;PMS7003;12220;50.194;18.948;2024-02-16T13:22:15;4;4;4
24012;PMS7003;12220;50.194;18.948;2024-02-16T13:24:16;8;7;5